Terminal Aerodrome Forecast
Issued by NWS Bismarck, ND

Home | Current Version | Previous Version | Graphics & Text | Print | Product List | Glossary On
Versions: 1 2 3 4 5 6 7 8 9 10 11 12 13 14 15 16 17 18 19 20 21 22
000
FTUS43 KBIS 012000 AAA
TAFISN
TAF AMD
KISN 012038Z 0121/0218 10008KT P6SM FEW250
     FM020200 08004KT P6SM SCT060 BKN150
     FM020500 VRB03KT P6SM VCSH BKN050 OVC120
     FM021200 04004KT P6SM SCT090=

USA.gov is the U.S. government's official web portal to all federal, state and local government web resources and services.